sensor_id;sensor_type;location;lat;lon;timestamp;pressure;altitude;pressure_sealevel;temperature;humidity
29467;BME280;60968;37.490;-122.288;2022-07-10T00:01:01;99258.97;;;23.36;46.35
29467;BME280;60968;37.490;-122.288;2022-07-10T00:04:01;99253.38;;;23.26;46.39
29467;BME280;60968;37.490;-122.288;2022-07-10T00:07:02;99250.59;;;23.28;46.29
29467;BME280;60968;37.490;-122.288;2022-07-10T00:10:04;99253.91;;;23.03;47.55
29467;BME280;60968;37.490;-122.288;2022-07-10T00:13:06;99251.31;;;22.72;48.22
29467;BME280;60968;37.490;-122.288;2022-07-10T00:16:07;99255.25;;;22.95;48.20
29467;BME280;60968;37.490;-122.288;2022-07-10T00:19:08;99241.56;;;23.02;47.79
29467;BME280;60968;37.490;-122.288;2022-07-10T00:22:09;99241.94;;;23.10;47.70
29467;BME280;60968;37.490;-122.288;2022-07-10T00:25:13;99234.34;;;22.89;48.29
29467;BME280;60968;37.490;-122.288;2022-07-10T00:28:14;99238.78;;;22.60;49.25
29467;BME280;60968;37.490;-122.288;2022-07-10T00:31:15;99232.03;;;22.54;49.60
29467;BME280;60968;37.490;-122.288;2022-07-10T00:34:16;99228.22;;;22.44;50.03
29467;BME280;60968;37.490;-122.288;2022-07-10T00:37:17;99221.78;;;22.18;50.76
29467;BME280;60968;37.490;-122.288;2022-07-10T00:40:20;99232.66;;;21.83;51.79
29467;BME280;60968;37.490;-122.288;2022-07-10T00:43:21;99233.34;;;21.70;52.04
29467;BME280;60968;37.490;-122.288;2022-07-10T00:46:23;99236.00;;;21.70;52.30
29467;BME280;60968;37.490;-122.288;2022-07-10T00:49:24;99233.69;;;21.64;52.58
29467;BME280;60968;37.490;-122.288;2022-07-10T00:52:25;99238.34;;;21.27;53.56
29467;BME280;60968;37.490;-122.288;2022-07-10T00:55:27;99232.97;;;21.29;54.06
29467;BME280;60968;37.490;-122.288;2022-07-10T00:58:28;99232.78;;;21.32;54.01
29467;BME280;60968;37.490;-122.288;2022-07-10T01:01:28;99231.59;;;21.21;54.40
29467;BME280;60968;37.490;-122.288;2022-07-10T01:04:30;99226.22;;;21.39;54.09
29467;BME280;60968;37.490;-122.288;2022-07-10T01:07:31;99221.25;;;21.33;54.33
29467;BME280;60968;37.490;-122.288;2022-07-10T01:10:32;99230.47;;;21.10;54.74
29467;BME280;60968;37.490;-122.288;2022-07-10T01:13:33;99234.72;;;20.96;55.02
29467;BME280;60968;37.490;-122.288;2022-07-10T01:16:34;99228.50;;;20.80;55.36
29467;BME280;60968;37.490;-122.288;2022-07-10T01:19:35;99228.50;;;20.80;56.02
29467;BME280;60968;37.490;-122.288;2022-07-10T01:22:37;99232.88;;;20.63;56.46
29467;BME280;60968;37.490;-122.288;2022-07-10T01:25:37;99230.25;;;20.46;57.05
29467;BME280;60968;37.490;-122.288;2022-07-10T01:28:38;99236.78;;;20.38;57.27
29467;BME280;60968;37.490;-122.288;2022-07-10T01:31:41;99229.47;;;20.26;57.54
29467;BME280;60968;37.490;-122.288;2022-07-10T01:34:42;99228.00;;;20.20;57.68
29467;BME280;60968;37.490;-122.288;2022-07-10T01:37:42;99227.91;;;20.04;58.43
29467;BME280;60968;37.490;-122.288;2022-07-10T01:40:43;99232.22;;;19.88;58.69
29467;BME280;60968;37.490;-122.288;2022-07-10T01:43:44;99230.28;;;19.55;59.79
29467;BME280;60968;37.490;-122.288;2022-07-10T01:46:46;99218.31;;;19.46;60.62
29467;BME280;60968;37.490;-122.288;2022-07-10T01:49:47;99217.47;;;19.46;60.56
29467;BME280;60968;37.490;-122.288;2022-07-10T01:52:48;99216.63;;;19.45;60.73
29467;BME280;60968;37.490;-122.288;2022-07-10T01:55:49;99220.63;;;19.16;61.25
29467;BME280;60968;37.490;-122.288;2022-07-10T01:58:50;99209.28;;;18.95;62.41
29467;BME280;60968;37.490;-122.288;2022-07-10T02:01:51;99208.06;;;19.02;62.21
29467;BME280;60968;37.490;-122.288;2022-07-10T02:04:51;99213.06;;;19.08;62.23
29467;BME280;60968;37.490;-122.288;2022-07-10T02:07:52;99205.13;;;19.08;62.04
29467;BME280;60968;37.490;-122.288;2022-07-10T02:10:53;99198.59;;;19.17;61.58
29467;BME280;60968;37.490;-122.288;2022-07-10T02:13:54;99202.16;;;19.16;61.51
29467;BME280;60968;37.490;-122.288;2022-07-10T02:16:55;99200.38;;;18.97;61.80
29467;BME280;60968;37.490;-122.288;2022-07-10T02:19:56;99203.53;;;18.85;61.83
29467;BME280;60968;37.490;-122.288;2022-07-10T02:22:56;99200.22;;;18.80;62.23
29467;BME280;60968;37.490;-122.288;2022-07-10T02:25:57;99197.06;;;18.72;62.88
29467;BME280;60968;37.490;-122.288;2022-07-10T02:28:58;99194.06;;;18.60;63.35
29467;BME280;60968;37.490;-122.288;2022-07-10T02:31:59;99185.50;;;18.55;63.83
29467;BME280;60968;37.490;-122.288;2022-07-10T02:35:00;99190.63;;;18.38;64.60
29467;BME280;60968;37.490;-122.288;2022-07-10T02:38:02;99186.28;;;18.37;64.14
29467;BME280;60968;37.490;-122.288;2022-07-10T02:41:03;99177.59;;;18.14;64.90
29467;BME280;60968;37.490;-122.288;2022-07-10T02:44:04;99181.13;;;17.92;65.62
29467;BME280;60968;37.490;-122.288;2022-07-10T02:47:04;99181.59;;;17.80;65.91
29467;BME280;60968;37.490;-122.288;2022-07-10T02:50:06;99188.31;;;17.66;66.56
29467;BME280;60968;37.490;-122.288;2022-07-10T02:53:06;99191.50;;;17.53;67.15
29467;BME280;60968;37.490;-122.288;2022-07-10T02:56:07;99194.16;;;17.29;68.45
29467;BME280;60968;37.490;-122.288;2022-07-10T02:59:08;99197.38;;;17.13;69.87
29467;BME280;60968;37.490;-122.288;2022-07-10T03:02:09;99195.97;;;17.05;69.54
29467;BME280;60968;37.490;-122.288;2022-07-10T03:05:10;99200.84;;;16.92;70.48
29467;BME280;60968;37.490;-122.288;2022-07-10T03:08:11;99203.81;;;16.81;71.14
29467;BME280;60968;37.490;-122.288;2022-07-10T03:11:12;99197.69;;;16.80;71.34
29467;BME280;60968;37.490;-122.288;2022-07-10T03:14:13;99198.88;;;16.72;71.56
29467;BME280;60968;37.490;-122.288;2022-07-10T03:17:14;99191.34;;;16.62;71.99
29467;BME280;60968;37.490;-122.288;2022-07-10T03:20:16;99190.69;;;16.56;72.35
29467;BME280;60968;37.490;-122.288;2022-07-10T03:23:17;99193.59;;;16.48;72.60
29467;BME280;60968;37.490;-122.288;2022-07-10T03:26:18;99192.50;;;16.28;73.99
29467;BME280;60968;37.490;-122.288;2022-07-10T03:29:19;99192.91;;;16.18;74.35
29467;BME280;60968;37.490;-122.288;2022-07-10T03:32:19;99195.00;;;16.08;74.85
29467;BME280;60968;37.490;-122.288;2022-07-10T03:35:20;99198.47;;;16.08;74.70
29467;BME280;60968;37.490;-122.288;2022-07-10T03:38:21;99195.28;;;15.99;75.38
29467;BME280;60968;37.490;-122.288;2022-07-10T03:41:22;99191.31;;;15.87;76.08
29467;BME280;60968;37.490;-122.288;2022-07-10T03:44:23;99193.22;;;15.82;76.47
29467;BME280;60968;37.490;-122.288;2022-07-10T03:47:24;99194.09;;;15.82;75.92
29467;BME280;60968;37.490;-122.288;2022-07-10T03:50:24;99203.63;;;15.85;76.02
29467;BME280;60968;37.490;-122.288;2022-07-10T03:53:26;99208.19;;;15.78;76.96
29467;BME280;60968;37.490;-122.288;2022-07-10T03:56:27;99209.94;;;15.79;76.54
29467;BME280;60968;37.490;-122.288;2022-07-10T03:59:27;99210.50;;;15.60;77.59
29467;BME280;60968;37.490;-122.288;2022-07-10T04:02:28;99211.41;;;15.59;77.36
29467;BME280;60968;37.490;-122.288;2022-07-10T04:05:29;99204.66;;;15.51;77.77
29467;BME280;60968;37.490;-122.288;2022-07-10T04:08:30;99211.59;;;15.53;77.62
29467;BME280;60968;37.490;-122.288;2022-07-10T04:11:31;99213.03;;;15.64;76.83
29467;BME280;60968;37.490;-122.288;2022-07-10T04:14:32;99210.81;;;15.51;77.35
29467;BME280;60968;37.490;-122.288;2022-07-10T04:17:33;99212.91;;;15.38;78.14
29467;BME280;60968;37.490;-122.288;2022-07-10T04:20:34;99214.69;;;15.38;78.14
29467;BME280;60968;37.490;-122.288;2022-07-10T04:23:35;99213.22;;;15.29;78.44
29467;BME280;60968;37.490;-122.288;2022-07-10T04:26:36;99217.84;;;15.21;78.88
29467;BME280;60968;37.490;-122.288;2022-07-10T04:29:36;99220.59;;;15.16;79.24
29467;BME280;60968;37.490;-122.288;2022-07-10T04:32:37;99214.47;;;15.16;79.30
29467;BME280;60968;37.490;-122.288;2022-07-10T04:35:38;99227.56;;;15.17;79.58
29467;BME280;60968;37.490;-122.288;2022-07-10T04:38:39;99224.13;;;15.15;79.43
29467;BME280;60968;37.490;-122.288;2022-07-10T04:41:40;99231.09;;;15.16;79.57
29467;BME280;60968;37.490;-122.288;2022-07-10T04:44:41;99226.75;;;15.15;80.05
29467;BME280;60968;37.490;-122.288;2022-07-10T04:47:41;99230.13;;;15.19;79.62
29467;BME280;60968;37.490;-122.288;2022-07-10T04:50:42;99229.19;;;15.21;79.51
29467;BME280;60968;37.490;-122.288;2022-07-10T04:53:44;99230.72;;;15.29;79.21
29467;BME280;60968;37.490;-122.288;2022-07-10T04:56:45;99234.97;;;15.33;79.14
29467;BME280;60968;37.490;-122.288;2022-07-10T04:59:45;99239.63;;;15.23;79.70
29467;BME280;60968;37.490;-122.288;2022-07-10T05:02:46;99239.88;;;15.15;80.44
29467;BME280;60968;37.490;-122.288;2022-07-10T05:05:48;99236.41;;;15.15;80.88
29467;BME280;60968;37.490;-122.288;2022-07-10T05:08:49;99235.75;;;15.06;81.83
29467;BME280;60968;37.490;-122.288;2022-07-10T05:11:50;99228.63;;;15.10;81.56
29467;BME280;60968;37.490;-122.288;2022-07-10T05:14:51;99238.34;;;15.08;82.15
29467;BME280;60968;37.490;-122.288;2022-07-10T05:17:51;99230.41;;;15.09;81.98
29467;BME280;60968;37.490;-122.288;2022-07-10T05:20:52;99232.03;;;15.14;82.24
29467;BME280;60968;37.490;-122.288;2022-07-10T05:23:53;99234.47;;;15.20;81.71
29467;BME280;60968;37.490;-122.288;2022-07-10T05:26:54;99226.44;;;15.26;81.37
29467;BME280;60968;37.490;-122.288;2022-07-10T05:29:56;99243.78;;;15.32;80.96
29467;BME280;60968;37.490;-122.288;2022-07-10T05:32:57;99242.94;;;15.30;81.03
29467;BME280;60968;37.490;-122.288;2022-07-10T05:35:59;99241.06;;;15.35;80.81
29467;BME280;60968;37.490;-122.288;2022-07-10T05:39:01;99236.66;;;15.35;80.93
29467;BME280;60968;37.490;-122.288;2022-07-10T05:42:02;99230.06;;;15.22;81.62
29467;BME280;60968;37.490;-122.288;2022-07-10T05:45:03;99234.38;;;15.23;81.58
29467;BME280;60968;37.490;-122.288;2022-07-10T05:48:04;99230.13;;;15.20;81.78
29467;BME280;60968;37.490;-122.288;2022-07-10T05:51:04;99225.84;;;15.16;82.00
29467;BME280;60968;37.490;-122.288;2022-07-10T05:54:05;99222.50;;;15.11;82.44
29467;BME280;60968;37.490;-122.288;2022-07-10T05:57:06;99230.31;;;15.13;82.08
29467;BME280;60968;37.490;-122.288;2022-07-10T06:00:08;99232.22;;;15.07;82.91
29467;BME280;60968;37.490;-122.288;2022-07-10T06:03:12;99224.38;;;15.06;82.77
29467;BME280;60968;37.490;-122.288;2022-07-10T06:06:13;99226.19;;;15.04;82.82
29467;BME280;60968;37.490;-122.288;2022-07-10T06:09:14;99231.69;;;14.95;83.89
29467;BME280;60968;37.490;-122.288;2022-07-10T06:12:14;99230.25;;;14.84;84.25
29467;BME280;60968;37.490;-122.288;2022-07-10T06:15:16;99222.38;;;14.84;84.49
29467;BME280;60968;37.490;-122.288;2022-07-10T06:18:17;99220.84;;;14.77;84.90
29467;BME280;60968;37.490;-122.288;2022-07-10T06:21:18;99222.59;;;14.77;84.67
29467;BME280;60968;37.490;-122.288;2022-07-10T06:24:19;99223.66;;;14.69;85.36
29467;BME280;60968;37.490;-122.288;2022-07-10T06:27:20;99221.91;;;14.70;85.20
29467;BME280;60968;37.490;-122.288;2022-07-10T06:30:21;99220.16;;;14.70;85.15
29467;BME280;60968;37.490;-122.288;2022-07-10T06:33:22;99214.09;;;14.67;85.49
29467;BME280;60968;37.490;-122.288;2022-07-10T06:36:23;99222.13;;;14.61;85.81
29467;BME280;60968;37.490;-122.288;2022-07-10T06:39:23;99230.88;;;14.59;86.17
29467;BME280;60968;37.490;-122.288;2022-07-10T06:42:24;99233.25;;;14.70;85.20
29467;BME280;60968;37.490;-122.288;2022-07-10T06:45:26;99234.03;;;14.74;84.96
29467;BME280;60968;37.490;-122.288;2022-07-10T06:48:29;99238.41;;;14.73;84.86
29467;BME280;60968;37.490;-122.288;2022-07-10T06:51:30;99238.31;;;14.77;84.56
29467;BME280;60968;37.490;-122.288;2022-07-10T06:54:32;99235.75;;;14.75;84.64
29467;BME280;60968;37.490;-122.288;2022-07-10T06:57:33;99246.19;;;14.78;84.46
29467;BME280;60968;37.490;-122.288;2022-07-10T07:00:34;99239.09;;;14.80;83.92
29467;BME280;60968;37.490;-122.288;2022-07-10T07:03:34;99240.84;;;14.81;83.95
29467;BME280;60968;37.490;-122.288;2022-07-10T07:06:36;99239.06;;;14.82;83.80
29467;BME280;60968;37.490;-122.288;2022-07-10T07:09:36;99231.19;;;14.82;83.70
29467;BME280;60968;37.490;-122.288;2022-07-10T07:12:37;99239.28;;;14.74;83.95
29467;BME280;60968;37.490;-122.288;2022-07-10T07:15:38;99228.94;;;14.68;84.48
29467;BME280;60968;37.490;-122.288;2022-07-10T07:18:40;99223.84;;;14.63;84.53
29467;BME280;60968;37.490;-122.288;2022-07-10T07:21:41;99236.97;;;14.62;85.05
29467;BME280;60968;37.490;-122.288;2022-07-10T07:24:43;99231.72;;;14.63;84.71
29467;BME280;60968;37.490;-122.288;2022-07-10T07:27:44;99234.34;;;14.63;84.52
29467;BME280;60968;37.490;-122.288;2022-07-10T07:30:47;99231.84;;;14.57;84.88
29467;BME280;60968;37.490;-122.288;2022-07-10T07:33:49;99226.72;;;14.52;85.37
29467;BME280;60968;37.490;-122.288;2022-07-10T07:36:50;99225.03;;;14.50;85.26
29467;BME280;60968;37.490;-122.288;2022-07-10T07:39:52;99228.84;;;14.38;86.03
29467;BME280;60968;37.490;-122.288;2022-07-10T07:42:54;99225.53;;;14.31;87.68
29467;BME280;60968;37.490;-122.288;2022-07-10T07:45:55;99225.38;;;14.36;88.55
29467;BME280;60968;37.490;-122.288;2022-07-10T07:48:56;99218.53;;;14.32;89.45
29467;BME280;60968;37.490;-122.288;2022-07-10T07:51:57;99214.84;;;14.39;89.33
29467;BME280;60968;37.490;-122.288;2022-07-10T07:54:58;99222.63;;;14.42;89.28
29467;BME280;60968;37.490;-122.288;2022-07-10T07:57:59;99209.59;;;14.39;88.97
29467;BME280;60968;37.490;-122.288;2022-07-10T08:01:00;99216.06;;;14.26;90.04
29467;BME280;60968;37.490;-122.288;2022-07-10T08:04:01;99221.59;;;14.13;90.50
29467;BME280;60968;37.490;-122.288;2022-07-10T08:07:02;99220.97;;;14.05;90.97
29467;BME280;60968;37.490;-122.288;2022-07-10T08:10:04;99213.25;;;13.99;91.68
29467;BME280;60968;37.490;-122.288;2022-07-10T08:13:05;99211.50;;;13.98;92.25
29467;BME280;60968;37.490;-122.288;2022-07-10T08:16:06;99208.09;;;13.96;93.10
29467;BME280;60968;37.490;-122.288;2022-07-10T08:19:07;99201.13;;;13.95;93.11
29467;BME280;60968;37.490;-122.288;2022-07-10T08:22:10;99195.97;;;13.92;92.64
29467;BME280;60968;37.490;-122.288;2022-07-10T08:25:11;99199.38;;;13.94;91.99
29467;BME280;60968;37.490;-122.288;2022-07-10T08:28:12;99191.53;;;13.94;91.76
29467;BME280;60968;37.490;-122.288;2022-07-10T08:31:13;99187.25;;;13.91;91.18
29467;BME280;60968;37.490;-122.288;2022-07-10T08:34:14;99177.47;;;13.98;90.48
29467;BME280;60968;37.490;-122.288;2022-07-10T08:37:15;99172.97;;;14.03;90.16
29467;BME280;60968;37.490;-122.288;2022-07-10T08:40:16;99175.53;;;14.04;89.36
29467;BME280;60968;37.490;-122.288;2022-07-10T08:43:17;99167.56;;;14.09;89.21
29467;BME280;60968;37.490;-122.288;2022-07-10T08:46:18;99162.97;;;14.17;88.53
29467;BME280;60968;37.490;-122.288;2022-07-10T08:49:20;99169.94;;;14.18;87.87
29467;BME280;60968;37.490;-122.288;2022-07-10T08:52:38;99175.00;;;14.26;87.20
29467;BME280;60968;37.490;-122.288;2022-07-10T08:55:43;99173.41;;;14.20;87.24
29467;BME280;60968;37.490;-122.288;2022-07-10T08:58:44;99166.53;;;14.15;87.63
29467;BME280;60968;37.490;-122.288;2022-07-10T09:01:45;99170.34;;;14.03;88.37
29467;BME280;60968;37.490;-122.288;2022-07-10T09:04:48;99168.97;;;13.88;88.75
29467;BME280;60968;37.490;-122.288;2022-07-10T09:07:49;99177.84;;;13.82;88.99
29467;BME280;60968;37.490;-122.288;2022-07-10T09:10:51;99163.91;;;13.82;91.74
29467;BME280;60968;37.490;-122.288;2022-07-10T09:13:54;99169.72;;;13.93;95.06
29467;BME280;60968;37.490;-122.288;2022-07-10T09:16:55;99163.59;;;13.94;95.43
29467;BME280;60968;37.490;-122.288;2022-07-10T09:19:56;99165.59;;;13.84;97.75
29467;BME280;60968;37.490;-122.288;2022-07-10T09:22:59;99166.38;;;13.86;98.47
29467;BME280;60968;37.490;-122.288;2022-07-10T09:26:04;99164.72;;;13.84;100.00
29467;BME280;60968;37.490;-122.288;2022-07-10T09:29:12;99165.72;;;13.80;100.00
29467;BME280;60968;37.490;-122.288;2022-07-10T09:32:17;99173.66;;;13.75;100.00
29467;BME280;60968;37.490;-122.288;2022-07-10T09:35:18;99167.75;;;13.67;100.00
29467;BME280;60968;37.490;-122.288;2022-07-10T09:38:18;99160.09;;;13.59;100.00
29467;BME280;60968;37.490;-122.288;2022-07-10T09:41:22;99151.44;;;13.55;100.00
29467;BME280;60968;37.490;-122.288;2022-07-10T09:44:23;99145.44;;;13.52;100.00
29467;BME280;60968;37.490;-122.288;2022-07-10T09:47:24;99152.44;;;13.50;100.00
29467;BME280;60968;37.490;-122.288;2022-07-10T09:50:35;99148.16;;;13.46;100.00
29467;BME280;60968;37.490;-122.288;2022-07-10T09:53:44;99143.81;;;13.46;100.00
29467;BME280;60968;37.490;-122.288;2022-07-10T09:56:49;99143.13;;;13.38;100.00
29467;BME280;60968;37.490;-122.288;2022-07-10T09:59:51;99145.78;;;13.36;100.00
29467;BME280;60968;37.490;-122.288;2022-07-10T10:02:56;99150.25;;;13.30;100.00
29467;BME280;60968;37.490;-122.288;2022-07-10T10:06:16;99156.38;;;13.29;100.00
29467;BME280;60968;37.490;-122.288;2022-07-10T10:09:38;99147.81;;;13.24;100.00
29467;BME280;60968;37.490;-122.288;2022-07-10T10:12:48;99143.59;;;13.16;100.00
29467;BME280;60968;37.490;-122.288;2022-07-10T10:15:52;99142.84;;;13.11;100.00
29467;BME280;60968;37.490;-122.288;2022-07-10T10:18:54;99143.66;;;13.13;100.00
29467;BME280;60968;37.490;-122.288;2022-07-10T10:21:57;99142.00;;;13.09;100.00
29467;BME280;60968;37.490;-122.288;2022-07-10T10:24:59;99147.31;;;13.06;100.00
29467;BME280;60968;37.490;-122.288;2022-07-10T10:28:04;99142.28;;;12.97;100.00
29467;BME280;60968;37.490;-122.288;2022-07-10T10:31:08;99140.69;;;12.91;100.00
29467;BME280;60968;37.490;-122.288;2022-07-10T10:34:10;99139.97;;;12.83;100.00
29467;BME280;60968;37.490;-122.288;2022-07-10T10:37:40;99137.69;;;12.67;100.00
29467;BME280;60968;37.490;-122.288;2022-07-10T10:40:41;99138.59;;;12.65;100.00
29467;BME280;60968;37.490;-122.288;2022-07-10T10:43:43;99143.16;;;12.55;100.00
29467;BME280;60968;37.490;-122.288;2022-07-10T10:47:05;99141.56;;;12.48;100.00
29467;BME280;60968;37.490;-122.288;2022-07-10T10:50:06;99139.94;;;12.42;100.00
29467;BME280;60968;37.490;-122.288;2022-07-10T10:53:36;99144.31;;;12.40;100.00
29467;BME280;60968;37.490;-122.288;2022-07-10T10:56:37;99132.22;;;12.34;100.00
29467;BME280;60968;37.490;-122.288;2022-07-10T11:02:48;99141.00;;;12.30;100.00
29467;BME280;60968;37.490;-122.288;2022-07-10T11:05:50;99143.69;;;12.27;100.00
29467;BME280;60968;37.490;-122.288;2022-07-10T11:08:51;99138.34;;;12.32;100.00
29467;BME280;60968;37.490;-122.288;2022-07-10T11:12:05;99139.88;;;12.44;100.00
29467;BME280;60968;37.490;-122.288;2022-07-10T11:15:07;99131.06;;;12.49;100.00
29467;BME280;60968;37.490;-122.288;2022-07-10T11:21:23;99131.31;;;12.37;100.00
29467;BME280;60968;37.490;-122.288;2022-07-10T11:28:10;99138.78;;;12.10;100.00
29467;BME280;60968;37.490;-122.288;2022-07-10T11:31:13;99136.09;;;12.13;100.00
29467;BME280;60968;37.490;-122.288;2022-07-10T11:34:14;99138.59;;;12.21;100.00
29467;BME280;60968;37.490;-122.288;2022-07-10T11:37:15;99144.34;;;12.39;100.00
29467;BME280;60968;37.490;-122.288;2022-07-10T11:40:16;99145.16;;;12.42;100.00
29467;BME280;60968;37.490;-122.288;2022-07-10T11:43:17;99148.44;;;12.52;100.00
29467;BME280;60968;37.490;-122.288;2022-07-10T11:46:20;99150.19;;;12.51;100.00
29467;BME280;60968;37.490;-122.288;2022-07-10T11:49:21;99143.34;;;12.44;100.00
29467;BME280;60968;37.490;-122.288;2022-07-10T11:52:22;99141.59;;;12.46;100.00
29467;BME280;60968;37.490;-122.288;2022-07-10T11:55:23;99141.50;;;12.51;100.00
29467;BME280;60968;37.490;-122.288;2022-07-10T11:58:26;99140.66;;;12.49;100.00
29467;BME280;60968;37.490;-122.288;2022-07-10T12:01:29;99143.19;;;12.53;100.00
29467;BME280;60968;37.490;-122.288;2022-07-10T12:04:30;99143.44;;;12.83;100.00
29467;BME280;60968;37.490;-122.288;2022-07-10T12:07:31;99142.16;;;13.03;100.00
29467;BME280;60968;37.490;-122.288;2022-07-10T12:10:33;99134.84;;;13.17;100.00
29467;BME280;60968;37.490;-122.288;2022-07-10T12:13:34;99135.03;;;13.10;100.00
29467;BME280;60968;37.490;-122.288;2022-07-10T12:16:35;99131.84;;;12.97;100.00
29467;BME280;60968;37.490;-122.288;2022-07-10T12:19:37;99131.88;;;12.94;100.00
29467;BME280;60968;37.490;-122.288;2022-07-10T12:22:38;99134.66;;;12.86;100.00
29467;BME280;60968;37.490;-122.288;2022-07-10T12:25:42;99140.09;;;12.77;100.00
29467;BME280;60968;37.490;-122.288;2022-07-10T12:28:51;99135.00;;;12.70;100.00
29467;BME280;60968;37.490;-122.288;2022-07-10T12:31:57;99129.09;;;12.61;100.00
29467;BME280;60968;37.490;-122.288;2022-07-10T12:34:59;99129.34;;;12.48;100.00
29467;BME280;60968;37.490;-122.288;2022-07-10T12:37:59;99136.44;;;12.43;100.00
29467;BME280;60968;37.490;-122.288;2022-07-10T12:41:13;99130.31;;;12.43;100.00
29467;BME280;60968;37.490;-122.288;2022-07-10T12:44:33;99134.69;;;12.42;100.00
29467;BME280;60968;37.490;-122.288;2022-07-10T12:47:43;99129.81;;;12.25;100.00
29467;BME280;60968;37.490;-122.288;2022-07-10T12:50:44;99132.47;;;12.22;100.00
29467;BME280;60968;37.490;-122.288;2022-07-10T12:53:47;99123.03;;;12.13;100.00
29467;BME280;60968;37.490;-122.288;2022-07-10T12:56:56;99123.09;;;12.10;100.00
29467;BME280;60968;37.490;-122.288;2022-07-10T13:00:06;99128.25;;;12.13;100.00
29467;BME280;60968;37.490;-122.288;2022-07-10T13:03:09;99127.25;;;12.21;100.00
29467;BME280;60968;37.490;-122.288;2022-07-10T13:06:28;99139.34;;;12.26;100.00
29467;BME280;60968;37.490;-122.288;2022-07-10T13:09:29;99130.75;;;12.21;100.00
29467;BME280;60968;37.490;-122.288;2022-07-10T13:12:30;99130.88;;;12.13;100.00
29467;BME280;60968;37.490;-122.288;2022-07-10T13:15:32;99134.28;;;12.18;100.00
29467;BME280;60968;37.490;-122.288;2022-07-10T13:18:33;99136.41;;;12.45;100.00
29467;BME280;60968;37.490;-122.288;2022-07-10T13:21:34;99139.59;;;12.59;100.00
29467;BME280;60968;37.490;-122.288;2022-07-10T13:24:34;99136.72;;;12.72;100.00
29467;BME280;60968;37.490;-122.288;2022-07-10T13:27:35;99125.13;;;12.83;100.00
29467;BME280;60968;37.490;-122.288;2022-07-10T13:30:36;99121.44;;;12.92;100.00
29467;BME280;60968;37.490;-122.288;2022-07-10T13:33:38;99116.25;;;12.91;100.00
29467;BME280;60968;37.490;-122.288;2022-07-10T13:36:39;99111.78;;;12.96;100.00
29467;BME280;60968;37.490;-122.288;2022-07-10T13:39:40;99115.53;;;13.23;100.00
29467;BME280;60968;37.490;-122.288;2022-07-10T13:42:41;99125.22;;;13.19;100.00
29467;BME280;60968;37.490;-122.288;2022-07-10T13:45:42;99122.56;;;13.21;100.00
29467;BME280;60968;37.490;-122.288;2022-07-10T13:48:43;99124.09;;;13.30;100.00
29467;BME280;60968;37.490;-122.288;2022-07-10T13:51:44;99132.66;;;13.38;100.00
29467;BME280;60968;37.490;-122.288;2022-07-10T13:54:45;99127.78;;;13.60;100.00
29467;BME280;60968;37.490;-122.288;2022-07-10T13:57:46;99131.22;;;13.62;100.00
29467;BME280;60968;37.490;-122.288;2022-07-10T14:00:46;99133.16;;;13.54;100.00
29467;BME280;60968;37.490;-122.288;2022-07-10T14:03:47;99134.75;;;13.60;100.00
29467;BME280;60968;37.490;-122.288;2022-07-10T14:06:48;99137.19;;;13.67;100.00
29467;BME280;60968;37.490;-122.288;2022-07-10T14:09:49;99135.13;;;13.80;100.00
29467;BME280;60968;37.490;-122.288;2022-07-10T14:12:52;99146.28;;;13.88;100.00
29467;BME280;60968;37.490;-122.288;2022-07-10T14:15:53;99141.66;;;13.98;100.00
29467;BME280;60968;37.490;-122.288;2022-07-10T14:18:54;99145.03;;;14.02;100.00
29467;BME280;60968;37.490;-122.288;2022-07-10T14:21:55;99147.25;;;14.17;100.00
29467;BME280;60968;37.490;-122.288;2022-07-10T14:24:56;99141.03;;;14.21;100.00
29467;BME280;60968;37.490;-122.288;2022-07-10T14:27:57;99146.19;;;14.24;100.00
29467;BME280;60968;37.490;-122.288;2022-07-10T14:30:58;99147.19;;;14.20;100.00
29467;BME280;60968;37.490;-122.288;2022-07-10T14:33:59;99144.19;;;14.01;100.00
29467;BME280;60968;37.490;-122.288;2022-07-10T14:37:01;99142.06;;;14.16;100.00
29467;BME280;60968;37.490;-122.288;2022-07-10T14:40:02;99143.19;;;14.38;100.00
29467;BME280;60968;37.490;-122.288;2022-07-10T14:43:03;99145.78;;;14.40;100.00
29467;BME280;60968;37.490;-122.288;2022-07-10T14:46:04;99149.03;;;14.81;100.00
29467;BME280;60968;37.490;-122.288;2022-07-10T14:49:05;99151.84;;;15.03;100.00
29467;BME280;60968;37.490;-122.288;2022-07-10T14:52:06;99149.56;;;14.92;100.00
29467;BME280;60968;37.490;-122.288;2022-07-10T14:55:07;99160.78;;;14.68;100.00
29467;BME280;60968;37.490;-122.288;2022-07-10T14:58:08;99167.50;;;14.78;100.00
29467;BME280;60968;37.490;-122.288;2022-07-10T15:01:10;99163.44;;;14.96;100.00
29467;BME280;60968;37.490;-122.288;2022-07-10T15:04:11;99168.81;;;15.21;100.00
29467;BME280;60968;37.490;-122.288;2022-07-10T15:07:15;99161.34;;;15.37;100.00
29467;BME280;60968;37.490;-122.288;2022-07-10T15:10:16;99153.06;;;15.50;99.44
29467;BME280;60968;37.490;-122.288;2022-07-10T15:13:17;99155.19;;;15.65;97.27
29467;BME280;60968;37.490;-122.288;2022-07-10T15:16:19;99162.47;;;15.85;96.78
29467;BME280;60968;37.490;-122.288;2022-07-10T15:19:20;99171.03;;;15.90;95.26
29467;BME280;60968;37.490;-122.288;2022-07-10T15:22:21;99166.22;;;16.28;92.39
29467;BME280;60968;37.490;-122.288;2022-07-10T15:25:22;99173.22;;;16.29;90.19
29467;BME280;60968;37.490;-122.288;2022-07-10T15:28:23;99172.56;;;16.48;88.79
29467;BME280;60968;37.490;-122.288;2022-07-10T15:31:24;99168.97;;;16.25;91.31